createdAt,value
2023-05-24T00:00:12.992Z,100358.56
2023-05-24T00:02:43.356Z,100352.34
2023-05-24T00:05:11.360Z,100364.75
2023-05-24T00:07:39.236Z,100363.84
2023-05-24T00:10:07.700Z,100374.47
2023-05-24T00:12:35.557Z,100365.63
2023-05-24T00:15:03.001Z,100349.69
2023-05-24T00:17:30.473Z,100372.69
2023-05-24T00:19:58.317Z,100369.16
2023-05-24T00:22:26.166Z,100361.19
2023-05-24T00:24:53.644Z,100368.25
2023-05-24T00:27:21.109Z,100368.28
2023-05-24T00:29:48.541Z,100360.31
2023-05-24T00:32:15.655Z,100378.88
2023-05-24T00:34:43.142Z,100377.09
2023-05-24T00:37:10.521Z,100368.25
2023-05-24T00:39:37.874Z,100372.69
2023-05-24T00:42:05.682Z,100363.84
2023-05-24T00:44:33.164Z,100366.50
2023-05-24T00:47:01.249Z,100363.84
2023-05-24T00:49:28.425Z,100365.63
2023-05-24T00:51:55.949Z,100362.97
2023-05-24T00:54:24.432Z,100352.34
2023-05-24T00:56:51.794Z,100362.09
2023-05-24T00:59:19.222Z,100348.81
2023-05-24T01:01:47.212Z,100343.50
2023-05-24T01:04:14.969Z,100347.03
2023-05-24T01:07:12.231Z,100352.34
2023-05-24T01:09:59.219Z,100353.22
2023-05-24T01:13:10.215Z,100335.50
2023-05-24T01:16:01.919Z,100340.78
2023-05-24T01:18:35.570Z,100341.66
2023-05-24T01:21:38.917Z,100352.31
2023-05-24T01:24:46.812Z,100350.47
2023-05-24T01:27:15.930Z,100346.88
2023-05-24T01:29:43.687Z,100357.50
2023-05-24T01:32:10.931Z,100350.38
2023-05-24T01:34:38.374Z,100360.13
2023-05-24T01:37:06.294Z,100358.31
2023-05-24T01:39:33.841Z,100358.34
2023-05-24T01:42:26.896Z,100339.78
2023-05-24T01:45:08.337Z,100358.34
2023-05-24T01:47:55.751Z,100358.34
2023-05-24T01:50:33.034Z,100350.31
2023-05-24T01:53:09.759Z,100346.78
2023-05-24T01:55:38.211Z,100368.91
2023-05-24T01:58:06.671Z,100368.00
2023-05-24T02:00:34.827Z,100390.09
2023-05-24T02:03:03.596Z,100367.03
2023-05-24T02:05:33.815Z,100375.88
2023-05-24T02:08:01.177Z,100393.56
2023-05-24T02:10:29.101Z,100382.06
2023-05-24T02:12:56.532Z,100378.53
2023-05-24T02:15:23.741Z,100365.22
2023-05-24T02:17:54.802Z,100366.13
2023-05-24T02:20:22.724Z,100365.22
2023-05-24T02:22:50.457Z,100360.75
2023-05-24T02:25:17.919Z,100377.59
2023-05-24T02:27:47.220Z,100366.94
2023-05-24T02:30:14.785Z,100374.00
2023-05-24T02:32:42.233Z,100375.78
2023-05-24T02:35:09.653Z,100372.22
2023-05-24T02:37:37.039Z,100380.19
2023-05-24T02:40:05.443Z,100384.56
2023-05-24T02:42:32.909Z,100380.97
2023-05-24T02:45:00.444Z,100396.94
2023-05-24T02:47:27.863Z,100394.22
2023-05-24T02:49:56.211Z,100386.25
2023-05-24T02:52:24.076Z,100387.13
2023-05-24T02:54:51.483Z,100391.56
2023-05-24T02:57:18.920Z,100402.13
2023-05-24T02:59:46.567Z,100403.03
2023-05-24T03:02:16.698Z,100395.88
2023-05-24T03:04:48.327Z,100376.38
2023-05-24T03:07:16.489Z,100388.84
2023-05-24T03:09:44.794Z,100371.16
2023-05-24T03:12:12.926Z,100379.06
2023-05-24T03:14:40.753Z,100390.63
2023-05-24T03:17:08.531Z,100393.25
2023-05-24T03:19:36.280Z,100383.44
2023-05-24T03:22:03.818Z,100389.69
2023-05-24T03:24:31.919Z,100393.13
2023-05-24T03:26:59.878Z,100396.66
2023-05-24T03:29:27.089Z,100394.03
2023-05-24T03:31:54.477Z,100393.13
2023-05-24T03:34:21.899Z,100401.06
2023-05-24T03:36:49.291Z,100407.22
2023-05-24T03:39:16.399Z,100415.13
2023-05-24T03:41:43.844Z,100411.53
2023-05-24T03:44:11.367Z,100424.81
2023-05-24T03:46:38.982Z,100430.13
2023-05-24T03:49:07.910Z,100430.91
2023-05-24T03:51:36.286Z,100439.78
2023-05-24T03:54:03.744Z,100443.31
2023-05-24T03:56:31.163Z,100438.72
2023-05-24T03:59:00.909Z,100447.66
2023-05-24T04:01:34.267Z,100455.59
2023-05-24T04:04:03.299Z,100478.63
2023-05-24T04:06:31.060Z,100484.75
2023-05-24T04:08:59.794Z,100471.50
2023-05-24T04:11:28.701Z,100482.00
2023-05-24T04:13:57.267Z,100467.84
2023-05-24T04:16:26.463Z,100465.19
2023-05-24T04:18:55.075Z,100475.84
2023-05-24T04:21:22.710Z,100470.56
2023-05-24T04:23:50.096Z,100471.47
2023-05-24T04:26:17.909Z,100462.69
2023-05-24T04:28:48.746Z,100451.81
2023-05-24T04:31:20.316Z,100445.69
2023-05-24T04:33:47.958Z,100458.19
2023-05-24T04:36:16.194Z,100448.31
2023-05-24T04:38:45.708Z,100454.38
2023-05-24T04:41:13.520Z,100451.72
2023-05-24T04:43:41.298Z,100458.88
2023-05-24T04:46:09.586Z,100463.34
2023-05-24T04:48:37.156Z,100450.91
2023-05-24T04:51:04.578Z,100460.66
2023-05-24T04:53:33.072Z,100489.00
2023-05-24T04:56:00.664Z,100481.00
2023-05-24T04:58:28.106Z,100477.38
2023-05-24T05:00:55.587Z,100474.72
2023-05-24T05:03:23.052Z,100471.13
2023-05-24T05:05:50.628Z,100475.59
2023-05-24T05:08:18.007Z,100467.72
2023-05-24T05:10:45.421Z,100477.50
2023-05-24T05:13:12.904Z,100477.38
2023-05-24T05:15:42.207Z,100478.16
2023-05-24T05:18:10.488Z,100487.00
2023-05-24T05:20:38.212Z,100473.63
2023-05-24T05:23:05.724Z,100475.44
2023-05-24T05:25:33.237Z,100482.66
2023-05-24T05:28:01.003Z,100488.97
2023-05-24T05:30:28.425Z,100506.75
2023-05-24T05:32:56.243Z,100492.63
2023-05-24T05:35:23.749Z,100490.97
2023-05-24T05:37:51.142Z,100492.78
2023-05-24T05:40:18.786Z,100497.25
2023-05-24T05:42:47.568Z,100493.78
2023-05-24T05:45:14.971Z,100470.00
2023-05-24T05:47:43.304Z,100466.56
2023-05-24T05:50:11.056Z,100449.88
2023-05-24T05:52:38.573Z,100434.00
2023-05-24T05:55:06.550Z,100422.53
2023-05-24T05:57:33.981Z,100423.38
2023-05-24T06:00:01.933Z,100427.06
2023-05-24T06:02:29.621Z,100417.31
2023-05-24T06:04:57.139Z,100398.72
2023-05-24T06:07:24.571Z,100403.25
2023-05-24T06:09:51.939Z,100401.50
2023-05-24T06:12:19.382Z,100390.88
2023-05-24T06:14:48.428Z,100383.81
2023-05-24T06:17:15.891Z,100369.75
2023-05-24T06:19:43.821Z,100379.50
2023-05-24T06:22:12.737Z,100364.47
2023-05-24T06:24:40.238Z,100340.56
2023-05-24T06:27:08.229Z,100377.75
2023-05-24T06:29:35.806Z,100361.88
2023-05-24T06:32:03.265Z,100365.44
2023-05-24T06:34:30.813Z,100359.22
2023-05-24T06:37:01.657Z,100362.84
2023-05-24T06:39:29.147Z,100379.72
2023-05-24T06:41:56.607Z,100331.84
2023-05-24T06:44:30.468Z,100366.50
2023-05-24T06:46:57.845Z,100348.81
2023-05-24T06:49:25.372Z,100332.06
2023-05-24T06:51:52.992Z,100284.31
2023-05-24T06:54:20.677Z,100256.94
2023-05-24T06:56:48.147Z,100281.69
2023-05-24T06:59:15.682Z,100265.78
2023-05-24T07:01:43.470Z,100232.19
2023-05-24T07:04:10.907Z,100183.59
2023-05-24T07:06:39.472Z,100137.66
2023-05-24T07:09:06.922Z,100127.91
2023-05-24T07:11:34.905Z,100182.66
2023-05-24T07:14:02.383Z,100172.03
2023-05-24T07:16:29.863Z,100132.31
2023-05-24T07:18:58.428Z,100127.84
2023-05-24T07:21:25.907Z,100151.63
2023-05-24T07:23:53.330Z,100122.44
2023-05-24T07:26:20.872Z,100051.72
2023-05-24T07:28:48.493Z,100072.81
2023-05-24T07:31:16.598Z,100053.28
2023-05-24T07:33:43.960Z,100030.25
2023-05-24T07:36:11.440Z,100025.84
2023-05-24T07:38:39.220Z,100018.75
2023-05-24T07:41:07.763Z,99991.25
2023-05-24T07:43:35.157Z,99954.16
2023-05-24T07:46:02.965Z,99986.03
2023-05-24T07:48:30.586Z,100028.44
2023-05-24T07:50:58.038Z,100057.44
2023-05-24T07:53:25.418Z,100051.88
2023-05-24T07:55:52.869Z,99997.19
2023-05-24T07:58:20.259Z,100017.19
2023-05-24T08:00:47.686Z,99918.47
2023-05-24T08:03:15.718Z,99850.38
2023-05-24T08:05:44.214Z,99816.47
2023-05-24T08:08:11.916Z,99707.22
2023-05-24T08:10:39.379Z,99720.97
2023-05-24T08:13:06.934Z,99731.31
2023-05-24T08:15:34.288Z,99703.41
2023-05-24T08:18:01.722Z,99659.22
2023-05-24T08:20:29.319Z,99618.25
2023-05-24T08:22:56.947Z,99577.28
2023-05-24T08:25:24.752Z,99614.22
2023-05-24T08:27:52.542Z,99510.94
2023-05-24T08:30:20.156Z,99429.16
2023-05-24T08:32:47.763Z,99516.44
2023-05-24T08:35:20.429Z,99438.75
2023-05-24T08:37:49.284Z,99490.28
2023-05-24T08:40:17.424Z,99519.75
2023-05-24T08:42:46.420Z,99471.13
2023-05-24T08:45:16.448Z,99439.97
2023-05-24T08:47:44.364Z,99545.31
2023-05-24T08:50:13.022Z,99606.03
2023-05-24T08:52:42.566Z,99563.19
2023-05-24T08:55:12.077Z,99502.97
2023-05-24T08:57:41.415Z,99544.31
2023-05-24T09:00:12.930Z,99435.34
2023-05-24T09:02:42.658Z,99404.28
2023-05-24T09:05:17.464Z,99503.72
2023-05-24T09:07:46.352Z,99423.78
2023-05-24T09:10:14.053Z,99374.63
2023-05-24T09:12:46.104Z,99265.91
2023-05-24T09:15:17.334Z,99244.59
2023-05-24T09:17:45.011Z,99219.44
2023-05-24T09:20:13.848Z,99323.03
2023-05-24T09:22:43.066Z,99234.19
2023-05-24T09:25:14.129Z,99256.78
2023-05-24T09:27:41.920Z,99235.97
2023-05-24T09:30:11.145Z,99309.34
2023-05-24T09:32:39.080Z,99399.41
2023-05-24T09:35:10.196Z,99462.78
2023-05-24T09:37:57.562Z,99387.72
2023-05-24T09:40:25.200Z,99208.03
2023-05-24T09:43:09.917Z,99287.63
2023-05-24T09:45:47.204Z,99227.13
2023-05-24T09:48:20.209Z,99288.97
2023-05-24T09:53:34.970Z,99223.13
2023-05-24T09:56:05.177Z,99304.81
2023-05-24T09:58:33.804Z,99167.25
2023-05-24T10:01:11.339Z,99164.19
2023-05-24T10:03:39.001Z,99225.97
2023-05-24T10:06:11.396Z,99237.03
2023-05-24T10:08:41.923Z,99138.69
2023-05-24T10:11:09.661Z,99157.22
2023-05-24T10:13:37.421Z,99211.44
2023-05-24T10:16:05.192Z,99108.44
2023-05-24T10:18:32.872Z,99015.53
2023-05-24T10:21:01.845Z,98906.50
2023-05-24T10:23:32.523Z,98902.59
2023-05-24T10:26:13.843Z,99037.56
2023-05-24T10:28:46.473Z,99158.88
2023-05-24T10:31:16.123Z,99233.03
2023-05-24T10:33:45.753Z,99212.72
2023-05-24T10:36:14.662Z,99225.91
2023-05-24T10:38:42.117Z,99225.16
2023-05-24T10:41:09.966Z,99161.38
2023-05-24T10:43:37.869Z,99076.16
2023-05-24T10:46:09.143Z,99155.69
2023-05-24T10:48:43.494Z,99034.63
2023-05-24T10:51:36.524Z,98957.94
2023-05-24T10:54:19.190Z,98807.81
2023-05-24T10:56:49.655Z,98910.78
2023-05-24T10:59:40.032Z,99057.34
2023-05-24T11:02:12.996Z,99063.63
2023-05-24T11:04:46.994Z,98981.69
2023-05-24T11:07:15.678Z,99148.25
2023-05-24T11:09:46.827Z,99132.47
2023-05-24T11:12:19.150Z,99035.16
2023-05-24T11:14:52.313Z,99066.63
2023-05-24T11:17:24.000Z,99249.63
2023-05-24T11:19:54.220Z,99145.94
2023-05-24T11:22:25.411Z,98947.28
2023-05-24T11:24:53.524Z,98886.03
2023-05-24T11:27:21.832Z,99155.69
2023-05-24T11:29:49.379Z,98945.88
2023-05-24T11:32:24.190Z,98917.88
2023-05-24T11:34:51.925Z,98996.97
2023-05-24T11:37:19.569Z,99079.31
2023-05-24T11:39:53.127Z,99081.66
2023-05-24T11:42:23.249Z,99053.03
2023-05-24T11:44:51.643Z,98921.44
2023-05-24T11:47:22.054Z,99004.25
2023-05-24T11:49:52.988Z,99059.19
2023-05-24T11:52:20.431Z,98799.91
2023-05-24T11:54:49.822Z,99029.22
2023-05-24T11:57:23.472Z,99019.63
2023-05-24T11:59:50.970Z,98744.19
2023-05-24T12:02:18.419Z,98832.78
2023-05-24T12:04:46.921Z,98978.75
2023-05-24T12:07:14.371Z,98723.91
2023-05-24T12:09:41.765Z,98855.06
2023-05-24T12:12:09.329Z,98941.25
2023-05-24T12:14:36.806Z,98814.44
2023-05-24T12:17:04.227Z,98893.56
2023-05-24T12:19:36.744Z,98936.53
2023-05-24T12:22:08.437Z,98992.50
2023-05-24T12:24:37.407Z,98910.13
2023-05-24T12:27:08.811Z,98740.16
2023-05-24T12:29:42.564Z,98824.59
2023-05-24T12:32:14.010Z,98590.34
2023-05-24T12:34:44.010Z,98670.50
2023-05-24T12:37:12.693Z,98689.47
2023-05-24T12:39:43.112Z,98751.88
2023-05-24T12:42:13.151Z,98768.34
2023-05-24T12:44:40.908Z,98683.47
2023-05-24T12:47:09.176Z,98766.16
2023-05-24T12:49:36.925Z,98580.19
2023-05-24T12:52:04.687Z,98515.06
2023-05-24T12:54:32.187Z,98705.06
2023-05-24T12:57:03.301Z,98487.28
2023-05-24T12:59:30.952Z,98271.09
2023-05-24T13:01:58.642Z,98643.22
2023-05-24T13:04:27.362Z,98626.06
2023-05-24T13:06:55.558Z,98663.25
2023-05-24T13:09:23.695Z,98503.38
2023-05-24T13:11:52.356Z,98576.91
2023-05-24T13:14:20.296Z,98462.59
2023-05-24T13:16:48.398Z,98378.50
2023-05-24T13:19:17.683Z,98309.28
2023-05-24T13:21:47.224Z,98385.31
2023-05-24T13:24:16.463Z,98328.38
2023-05-24T13:26:44.638Z,98402.84
2023-05-24T13:31:42.971Z,98264.31
2023-05-24T13:34:13.594Z,98330.09
2023-05-24T13:36:42.094Z,98171.53
2023-05-24T13:39:14.998Z,98093.63
2023-05-24T13:41:57.759Z,98154.56
2023-05-24T13:44:25.235Z,98284.94
2023-05-24T13:46:54.245Z,98272.03
2023-05-24T13:49:21.733Z,98383.53
2023-05-24T13:51:49.456Z,98407.88
2023-05-24T13:54:17.636Z,98447.66
2023-05-24T13:56:45.238Z,98327.00
2023-05-24T13:59:12.964Z,98063.94
2023-05-24T14:01:40.789Z,98191.22
2023-05-24T14:04:08.369Z,98132.97
2023-05-24T14:06:37.867Z,98357.19
2023-05-24T14:09:15.292Z,98348.41
2023-05-24T14:11:42.898Z,98413.84
2023-05-24T14:16:40.870Z,98233.47
2023-05-24T14:19:08.325Z,98075.84
2023-05-24T14:21:36.477Z,98237.50
2023-05-24T14:24:04.438Z,98157.28
2023-05-24T14:26:32.317Z,98026.38
2023-05-24T14:28:59.759Z,98364.28
2023-05-24T14:31:27.657Z,98359.19
2023-05-24T14:33:55.095Z,98305.16
2023-05-24T14:36:22.473Z,98078.56
2023-05-24T14:38:49.876Z,98250.72
2023-05-24T14:41:17.340Z,98392.50
2023-05-24T14:43:44.856Z,98017.44
2023-05-24T14:46:12.399Z,97835.44
2023-05-24T14:48:41.626Z,98080.59
2023-05-24T14:51:17.542Z,98155.75
2023-05-24T14:53:45.462Z,98189.66
2023-05-24T14:56:14.505Z,98193.19
2023-05-24T14:58:42.211Z,98293.75
2023-05-24T15:01:09.401Z,98223.78
2023-05-24T15:03:36.977Z,97877.59
2023-05-24T15:06:05.539Z,97924.09
2023-05-24T15:08:35.024Z,97977.47
2023-05-24T15:11:02.818Z,97909.38
2023-05-24T15:13:31.583Z,98087.28
2023-05-24T15:16:00.642Z,97876.78
2023-05-24T15:18:31.793Z,98104.38
2023-05-24T15:20:59.571Z,98158.03
2023-05-24T15:23:27.193Z,97958.03
2023-05-24T15:25:54.661Z,98020.13
2023-05-24T15:28:24.665Z,97900.16
2023-05-24T15:30:53.920Z,98019.69
2023-05-24T15:33:21.903Z,98074.03
2023-05-24T15:35:49.479Z,97952.41
2023-05-24T15:38:18.773Z,98015.38
2023-05-24T15:40:46.902Z,97785.59
2023-05-24T15:45:49.889Z,97839.34
2023-05-24T15:48:17.941Z,97909.19
2023-05-24T15:51:29.138Z,97809.19
2023-05-24T15:53:37.133Z,97805.22
2023-05-24T15:56:04.708Z,97868.09
2023-05-24T15:58:32.342Z,97993.84
2023-05-24T16:00:59.944Z,97931.50
2023-05-24T16:03:27.708Z,98024.09
2023-05-24T16:05:55.305Z,97995.22
2023-05-24T16:08:27.889Z,97997.75
2023-05-24T16:10:56.293Z,98036.81
2023-05-24T16:13:24.344Z,98039.66
2023-05-24T16:15:52.335Z,98011.41
2023-05-24T16:18:23.814Z,98098.44
2023-05-24T16:20:52.309Z,98157.78
2023-05-24T16:23:23.224Z,98210.22
2023-05-24T16:25:51.603Z,98207.56
2023-05-24T16:28:24.394Z,98241.34
2023-05-24T16:30:55.823Z,98193.88
2023-05-24T16:33:25.364Z,98293.06
2023-05-24T16:35:56.098Z,98212.91
2023-05-24T16:38:25.891Z,98159.06
2023-05-24T16:40:54.100Z,98260.56
2023-05-24T16:43:22.012Z,98247.88
2023-05-24T16:45:49.636Z,98315.31
2023-05-24T16:48:18.459Z,98218.06
2023-05-24T16:50:46.026Z,98279.72
2023-05-24T16:53:13.542Z,98287.91
2023-05-24T16:55:43.789Z,98197.91
2023-05-24T16:58:11.361Z,98268.03
2023-05-24T17:00:38.786Z,98233.22
2023-05-24T17:03:06.630Z,98244.69
2023-05-24T17:05:34.200Z,98234.41
2023-05-24T17:08:01.667Z,98190.81
2023-05-24T17:11:51.692Z,98301.69
2023-05-24T17:14:19.108Z,98215.97
2023-05-24T17:16:46.636Z,98284.78
2023-05-24T17:19:14.225Z,98344.91
2023-05-24T17:21:42.153Z,98351.41
2023-05-24T17:24:09.807Z,98383.06
2023-05-24T17:26:39.167Z,98404.19
2023-05-24T17:29:06.692Z,98378.88
2023-05-24T17:31:34.355Z,98394.25
2023-05-24T17:34:02.145Z,98355.19
2023-05-24T17:36:33.588Z,98358.41
2023-05-24T17:39:01.070Z,98380.25
2023-05-24T17:41:28.545Z,98298.09
2023-05-24T17:43:56.108Z,98365.56
2023-05-24T17:46:29.801Z,98331.66
2023-05-24T17:48:57.436Z,98392.44
2023-05-24T17:51:25.049Z,98364.19
2023-05-24T17:53:52.629Z,98295.63
2023-05-24T17:56:22.497Z,98347.59
2023-05-24T17:58:50.663Z,98352.94
2023-05-24T18:01:18.269Z,98327.41
2023-05-24T18:03:45.786Z,98310.28
2023-05-24T18:06:13.330Z,98327.75
2023-05-24T18:12:48.009Z,98344.91
2023-05-24T18:15:15.650Z,98375.31
2023-05-24T18:17:43.069Z,98322.19
2023-05-24T18:20:12.422Z,98345.81
2023-05-24T18:22:41.691Z,98372.56
2023-05-24T18:25:09.569Z,98422.03
2023-05-24T18:27:37.028Z,98459.25
2023-05-24T18:30:05.258Z,98477.19
2023-05-24T18:32:32.776Z,98484.28
2023-05-24T18:35:00.407Z,98486.47
2023-05-24T18:37:28.106Z,98494.84
2023-05-24T18:39:56.154Z,98445.19
2023-05-24T18:42:23.613Z,98494.16
2023-05-24T18:44:51.261Z,98496.38
2023-05-24T18:47:18.765Z,98537.63
2023-05-24T18:49:46.267Z,98566.22
2023-05-24T18:52:13.709Z,98562.31
2023-05-24T18:54:41.166Z,98559.28
2023-05-24T18:57:08.624Z,98513.06
2023-05-24T18:59:37.099Z,98542.97
2023-05-24T19:02:04.845Z,98559.63
2023-05-24T19:04:32.350Z,98575.47
2023-05-24T19:06:59.978Z,98602.16
2023-05-24T19:09:27.465Z,98583.13
2023-05-24T19:11:59.153Z,98602.56
2023-05-24T19:14:26.666Z,98614.06
2023-05-24T19:16:54.362Z,98587.81
2023-05-24T19:19:22.248Z,98590.81
2023-05-24T19:21:49.714Z,98637.59
2023-05-24T19:24:17.274Z,98669.16
2023-05-24T19:26:44.741Z,98671.66
2023-05-24T19:29:12.264Z,98704.22
2023-05-24T19:31:39.764Z,98735.22
2023-05-24T19:34:07.172Z,98733.69
2023-05-24T19:36:34.637Z,98730.69
2023-05-24T19:39:02.189Z,98778.47
2023-05-24T19:41:30.937Z,98763.44
2023-05-24T19:43:58.840Z,98770.03
2023-05-24T19:46:26.880Z,98814.22
2023-05-24T19:48:54.455Z,98804.84
2023-05-24T19:51:21.965Z,98814.78
2023-05-24T19:53:50.222Z,98833.44
2023-05-24T19:56:17.700Z,98887.34
2023-05-24T19:58:45.240Z,98911.59
2023-05-24T20:01:12.690Z,98920.53
2023-05-24T20:03:40.302Z,98920.97
2023-05-24T20:06:07.986Z,98963.16
2023-05-24T20:08:36.039Z,98993.34
2023-05-24T20:11:03.866Z,99031.47
2023-05-24T20:13:31.380Z,99046.69
2023-05-24T20:15:58.883Z,99067.13
2023-05-24T20:18:26.336Z,99078.75
2023-05-24T20:20:55.270Z,99065.69
2023-05-24T20:23:27.347Z,99066.88
2023-05-24T20:25:57.922Z,99073.34
2023-05-24T20:28:30.565Z,99105.06
2023-05-24T20:30:59.444Z,99096.38
2023-05-24T20:33:27.056Z,99112.31
2023-05-24T20:35:54.652Z,99118.63
2023-05-24T20:38:23.236Z,99170.66
2023-05-24T20:40:50.767Z,99178.72
2023-05-24T20:43:18.297Z,99161.34
2023-05-24T20:45:45.995Z,99201.91
2023-05-24T20:48:13.726Z,99224.38
2023-05-24T20:50:41.255Z,99213.84
2023-05-24T20:53:08.729Z,99221.94
2023-05-24T20:55:36.239Z,99200.00
2023-05-24T20:58:04.158Z,99222.00
2023-05-24T21:00:31.599Z,99242.59
2023-05-24T21:02:59.336Z,99252.31
2023-05-24T21:05:26.734Z,99275.34
2023-05-24T21:07:54.198Z,99292.16
2023-05-24T21:10:40.247Z,99299.38
2023-05-24T21:13:08.034Z,99326.78
2023-05-24T21:15:35.918Z,99331.28
2023-05-24T21:18:04.140Z,99357.75
2023-05-24T21:20:31.741Z,99360.66
2023-05-24T21:22:59.268Z,99400.41
2023-05-24T21:25:26.732Z,99411.00
2023-05-24T21:27:54.167Z,99407.66
2023-05-24T21:30:21.705Z,99450.84
2023-05-24T21:32:49.235Z,99475.75
2023-05-24T21:35:16.761Z,99502.19
2023-05-24T21:37:44.242Z,99514.50
2023-05-24T21:40:12.128Z,99524.38
2023-05-24T21:42:39.713Z,99531.47
2023-05-24T21:45:08.020Z,99549.25
2023-05-24T21:47:36.320Z,99573.25
2023-05-24T21:50:03.953Z,99590.94
2023-05-24T21:52:31.515Z,99598.16
2023-05-24T21:54:58.958Z,99617.69
2023-05-24T21:57:26.681Z,99657.38
2023-05-24T21:59:54.154Z,99658.25
2023-05-24T22:02:21.830Z,99683.88
2023-05-24T22:04:49.626Z,99695.41
2023-05-24T22:07:17.035Z,99699.00
2023-05-24T22:09:44.519Z,99713.97
2023-05-24T22:12:11.971Z,99724.66
2023-05-24T22:14:39.428Z,99740.59
2023-05-24T22:17:06.930Z,99748.66
2023-05-24T22:22:04.807Z,99766.38
2023-05-24T22:24:32.187Z,99792.00
2023-05-24T22:27:01.231Z,99804.28
2023-05-24T22:29:29.181Z,99814.13
2023-05-24T22:31:56.681Z,99803.66
2023-05-24T22:34:29.627Z,99819.53
2023-05-24T22:36:57.772Z,99818.72
2023-05-24T22:39:25.932Z,99859.31
2023-05-24T22:41:53.738Z,99856.75
2023-05-24T22:44:21.273Z,99870.06
2023-05-24T22:46:54.990Z,99898.31
2023-05-24T22:49:22.642Z,99879.84
2023-05-24T22:51:51.009Z,99895.72
2023-05-24T22:54:18.668Z,99899.31
2023-05-24T22:56:46.622Z,99935.50
2023-05-24T22:59:14.116Z,99963.72
2023-05-24T23:01:41.632Z,99979.63
2023-05-24T23:04:20.388Z,99999.03
2023-05-24T23:06:52.859Z,99993.75
2023-05-24T23:09:34.108Z,99994.66
2023-05-24T23:12:08.476Z,100006.16
2023-05-24T23:14:41.875Z,100025.56
2023-05-24T23:17:13.410Z,100046.72
2023-05-24T23:19:42.722Z,100059.09
2023-05-24T23:22:19.133Z,100064.38
2023-05-24T23:24:49.794Z,100090.84
2023-05-24T23:27:17.852Z,100107.59
2023-05-24T23:29:45.621Z,100106.69
2023-05-24T23:32:13.168Z,100125.19
2023-05-24T23:34:40.921Z,100155.13
2023-05-24T23:37:08.710Z,100183.38
2023-05-24T23:39:36.205Z,100179.81
2023-05-24T23:42:03.971Z,100194.78
2023-05-24T23:44:31.483Z,100214.19
2023-05-24T23:46:59.175Z,100215.91
2023-05-24T23:49:26.684Z,100225.63
2023-05-24T23:51:54.287Z,100237.00
2023-05-24T23:54:21.885Z,100247.53
2023-05-24T23:56:49.362Z,100265.94
2023-05-24T23:59:17.485Z,100277.38
